Leon, Virginia
Current Conditions -  °F | °C
As of 8:15 AM on Saturday 22 Nov 2014 (Local Time) from KOMH Reporting Station
Clear Clear  
Wind Chill: 20°   Ceiling: Unl
Heat Index: 28°   Visibility: 10mi
Dew Point: 18°   Wind: 9mph
Humidity: 64%   Direction: 180°S
Pressure: 30.5"   Gusts: NA
Location:  38.44°N, 78.14°W
Report Text: KOMH 221315Z AUTO 18008KT 10SM CLR M02/M08 A3050 RMK AO2
Loading
Personal Weather Stations






























Interactive Weather Map New forecast layout! Learn more

10-Day Weather Forecast

Advertisements
Track Severe Weather on mobile